Time;durP1;ratioP1;P1;durP2;ratioP2;P2;SDS_P1;SDS_P2;PMS_P1;PMS_P2;Temp;Humidity;BMP_temperature;BMP_pressure;BME280_temperature;BME280_humidity;BME280_pressure;Samples;Min_cycle;Max_cycle;Signal;HPM_P1;HPM_P2
2022/11/26 00:00:41;;;;;;;36.60;9.57;;;;;;;;;;5070399;28;20537;-89
2022/11/26 00:03:14;;;;;;;32.92;9.90;;;;;;;;;;5072728;28;20418;-89
2022/11/26 00:05:49;;;;;;;31.48;9.57;;;;;;;;;;5066478;28;20413;-89
2022/11/26 00:08:19;;;;;;;38.00;9.77;;;;;;;;;;5082680;28;20408;-90
2022/11/26 00:10:50;;;;;;;42.92;9.98;;;;;;;;;;5067681;28;20909;-89
2022/11/26 00:13:20;;;;;;;30.73;9.88;;;;;;;;;;5068210;28;20427;-88
2022/11/26 00:15:48;;;;;;;29.42;9.60;;;;;;;;;;5076910;28;20744;-89
2022/11/26 00:18:16;;;;;;;31.23;9.98;;;;;;;;;;5065798;28;20418;-89
2022/11/26 00:20:45;;;;;;;37.88;10.38;;;;;;;;;;5082892;28;20772;-89
2022/11/26 00:23:20;;;;;;;38.80;10.10;;;;;;;;;;5084577;28;20743;-90
2022/11/26 00:25:55;;;;;;;39.60;10.02;;;;;;;;;;5064809;28;20415;-89
2022/11/26 00:28:29;;;;;;;38.45;10.27;;;;;;;;;;5069022;28;20437;-88
2022/11/26 00:30:58;;;;;;;38.45;9.80;;;;;;;;;;5085343;28;20411;-90
2022/11/26 00:33:31;;;;;;;41.97;10.13;;;;;;;;;;5066558;28;20910;-89
2022/11/26 00:36:02;;;;;;;43.90;10.45;;;;;;;;;;5097964;28;20415;-89
2022/11/26 00:38:35;;;;;;;42.30;9.90;;;;;;;;;;5083366;28;20423;-89
2022/11/26 00:41:14;;;;;;;32.83;9.63;;;;;;;;;;5072377;28;20770;-90
2022/11/26 00:43:47;;;;;;;37.05;9.20;;;;;;;;;;5088885;28;20892;-89
2022/11/26 00:46:21;;;;;;;37.83;9.43;;;;;;;;;;5070065;28;21028;-89
2022/11/26 00:48:54;;;;;;;31.25;8.90;;;;;;;;;;5100601;28;20422;-88
2022/11/26 00:51:27;;;;;;;36.13;9.67;;;;;;;;;;5069795;28;20493;-88
2022/11/26 00:54:02;;;;;;;41.80;9.70;;;;;;;;;;5089346;28;20414;-89
2022/11/26 00:56:32;;;;;;;30.98;9.40;;;;;;;;;;5083870;28;20410;-89
2022/11/26 00:58:59;;;;;;;29.27;9.40;;;;;;;;;;5069994;28;20881;-89
2022/11/26 01:01:32;;;;;;;36.47;9.27;;;;;;;;;;5077314;28;20427;-90
2022/11/26 01:04:05;;;;;;;29.27;9.23;;;;;;;;;;5099618;27;21115;-89
2022/11/26 01:06:39;;;;;;;36.60;9.73;;;;;;;;;;5054563;28;20419;-89
2022/11/26 01:09:11;;;;;;;37.33;8.93;;;;;;;;;;5079409;28;20416;-89
2022/11/26 01:11:45;;;;;;;30.70;9.43;;;;;;;;;;5093299;28;20433;-88
2022/11/26 01:14:19;;;;;;;28.30;9.43;;;;;;;;;;5064051;28;20535;-89
2022/11/26 01:16:53;;;;;;;31.90;9.13;;;;;;;;;;5081709;28;20412;-89
2022/11/26 01:19:25;;;;;;;28.45;8.95;;;;;;;;;;5060995;28;20410;-89
2022/11/26 01:21:53;;;;;;;29.35;9.00;;;;;;;;;;5082100;28;20420;-89
2022/11/26 01:24:21;;;;;;;26.33;8.60;;;;;;;;;;5063004;28;20886;-89
2022/11/26 01:26:50;;;;;;;31.40;9.23;;;;;;;;;;5063996;28;20421;-87
2022/11/26 01:29:23;;;;;;;29.13;9.13;;;;;;;;;;5065012;28;20422;-89
2022/11/26 01:31:51;;;;;;;33.33;9.07;;;;;;;;;;5063178;28;20807;-89
2022/11/26 01:34:18;;;;;;;29.50;9.10;;;;;;;;;;5079920;28;20416;-88
2022/11/26 01:36:52;;;;;;;33.70;9.18;;;;;;;;;;5062576;28;20423;-88
2022/11/26 01:39:24;;;;;;;36.63;10.05;;;;;;;;;;5078289;28;20454;-89
2022/11/26 01:42:02;;;;;;;32.97;9.13;;;;;;;;;;5082803;28;21080;-89
2022/11/26 01:44:36;;;;;;;32.47;9.20;;;;;;;;;;5068766;28;20453;-89
2022/11/26 01:47:19;;;;;;;34.85;9.40;;;;;;;;;;5060274;28;20432;-88
2022/11/26 01:50:02;;;;;;;26.20;8.98;;;;;;;;;;5067981;28;20419;-89
2022/11/26 01:52:35;;;;;;;32.10;8.80;;;;;;;;;;5067941;28;20427;-88
2022/11/26 01:55:09;;;;;;;37.50;8.82;;;;;;;;;;5070043;28;20431;-89
2022/11/26 01:57:44;;;;;;;29.13;8.70;;;;;;;;;;5081242;28;20419;-89
2022/11/26 02:00:17;;;;;;;26.75;8.75;;;;;;;;;;5085442;28;20878;-87
2022/11/26 02:02:50;;;;;;;32.67;8.38;;;;;;;;;;5068456;28;20416;-89
2022/11/26 02:05:19;;;;;;;29.05;8.90;;;;;;;;;;5082643;28;20402;-89
2022/11/26 02:07:52;;;;;;;37.85;9.00;;;;;;;;;;5066960;28;20422;-89
2022/11/26 02:10:20;;;;;;;30.77;8.30;;;;;;;;;;5062032;28;20411;-89
2022/11/26 02:12:54;;;;;;;32.83;9.32;;;;;;;;;;5073409;28;20898;-89
2022/11/26 02:15:29;;;;;;;41.70;9.23;;;;;;;;;;5067825;28;20913;-89
2022/11/26 02:18:04;;;;;;;29.52;8.95;;;;;;;;;;5089457;28;20417;-89
2022/11/26 02:20:45;;;;;;;35.15;9.43;;;;;;;;;;5068393;28;20774;-90
2022/11/26 02:23:51;;;;;;;30.53;8.93;;;;;;;;;;5078053;28;20422;-87
2022/11/26 02:26:34;;;;;;;32.08;9.23;;;;;;;;;;4984280;28;20427;-88
2022/11/26 02:29:12;;;;;;;38.25;9.82;;;;;;;;;;4985712;28;20438;-89
2022/11/26 02:31:48;;;;;;;45.90;10.00;;;;;;;;;;5044705;28;20504;-88
2022/11/26 02:34:18;;;;;;;30.70;9.82;;;;;;;;;;5065149;28;20413;-88
2022/11/26 02:36:53;;;;;;;34.70;9.63;;;;;;;;;;5063862;28;20424;-89
2022/11/26 02:39:27;;;;;;;37.38;9.55;;;;;;;;;;5063714;28;20429;-90
2022/11/26 02:42:03;;;;;;;36.88;9.73;;;;;;;;;;5077650;28;20420;-88
2022/11/26 02:44:32;;;;;;;32.72;9.52;;;;;;;;;;5086447;28;20438;-89
2022/11/26 02:47:08;;;;;;;36.03;9.40;;;;;;;;;;5060715;28;20423;-89
2022/11/26 02:49:37;;;;;;;32.78;8.80;;;;;;;;;;5064648;28;20415;-88
2022/11/26 02:52:05;;;;;;;29.70;9.63;;;;;;;;;;5064574;28;20428;-89
2022/11/26 02:54:34;;;;;;;36.40;9.80;;;;;;;;;;5064256;28;20415;-89
2022/11/26 02:57:02;;;;;;;34.13;9.20;;;;;;;;;;5072506;28;20488;-90
2022/11/26 02:59:30;;;;;;;28.70;9.02;;;;;;;;;;5064818;28;20427;-89
2022/11/26 03:02:08;;;;;;;33.43;9.77;;;;;;;;;;5083385;28;20415;-89
2022/11/26 03:04:39;;;;;;;32.33;9.65;;;;;;;;;;5072829;28;20729;-89
2022/11/26 03:07:08;;;;;;;30.67;9.48;;;;;;;;;;5099533;28;20444;-89
2022/11/26 03:09:41;;;;;;;26.95;9.00;;;;;;;;;;5063673;28;20424;-87
2022/11/26 03:12:09;;;;;;;30.57;9.57;;;;;;;;;;5083082;28;20414;-88
2022/11/26 03:14:42;;;;;;;40.40;10.23;;;;;;;;;;5059286;28;21036;-88
2022/11/26 03:17:15;;;;;;;35.50;10.20;;;;;;;;;;5059160;28;20424;-88
2022/11/26 03:19:49;;;;;;;43.22;10.52;;;;;;;;;;5071067;28;20429;-89
2022/11/26 03:22:22;;;;;;;41.47;10.67;;;;;;;;;;5074790;28;20415;-89
2022/11/26 03:24:55;;;;;;;39.80;10.90;;;;;;;;;;5062633;28;20424;-88
2022/11/26 03:27:28;;;;;;;37.57;11.63;;;;;;;;;;5067135;28;20444;-88
2022/11/26 03:29:55;;;;;;;50.97;11.13;;;;;;;;;;5064068;28;20427;-88
2022/11/26 03:32:28;;;;;;;53.37;11.07;;;;;;;;;;5086188;28;20425;-89
2022/11/26 03:34:57;;;;;;;37.73;11.20;;;;;;;;;;5062037;28;20495;-86
2022/11/26 03:37:30;;;;;;;48.30;11.50;;;;;;;;;;5067531;28;20437;-88
2022/11/26 03:40:03;;;;;;;47.20;11.43;;;;;;;;;;5081793;28;20415;-90
2022/11/26 03:42:37;;;;;;;114.35;12.13;;;;;;;;;;5074658;28;20633;-89
2022/11/26 03:45:05;;;;;;;45.85;11.07;;;;;;;;;;5064380;28;21129;-89
2022/11/26 03:47:33;;;;;;;59.92;11.40;;;;;;;;;;5071800;28;21116;-88
2022/11/26 03:50:02;;;;;;;90.13;11.47;;;;;;;;;;5085851;28;20421;-88
2022/11/26 03:52:35;;;;;;;50.42;10.82;;;;;;;;;;5070093;28;20425;-87
2022/11/26 03:55:09;;;;;;;88.35;11.45;;;;;;;;;;5070270;28;20418;-90
2022/11/26 03:57:41;;;;;;;66.25;11.13;;;;;;;;;;5066356;28;20423;-88
2022/11/26 04:00:10;;;;;;;67.25;11.50;;;;;;;;;;5069773;28;20419;-89
2022/11/26 04:02:43;;;;;;;67.15;10.55;;;;;;;;;;5078304;28;20768;-88
2022/11/26 04:05:12;;;;;;;80.30;10.57;;;;;;;;;;5068754;28;20417;-89
2022/11/26 04:07:40;;;;;;;45.03;9.82;;;;;;;;;;5085251;28;20404;-89
2022/11/26 04:10:12;;;;;;;61.85;10.25;;;;;;;;;;5087168;28;20427;-89
2022/11/26 04:12:40;;;;;;;80.30;9.77;;;;;;;;;;5067492;28;20418;-87
2022/11/26 04:15:13;;;;;;;73.00;9.27;;;;;;;;;;5066606;28;20774;-88
2022/11/26 04:17:46;;;;;;;52.88;9.27;;;;;;;;;;5075523;28;20430;-89
2022/11/26 04:20:15;;;;;;;71.88;9.45;;;;;;;;;;5073640;28;20419;-90
2022/11/26 04:22:48;;;;;;;80.93;10.25;;;;;;;;;;5096533;28;20420;-89
2022/11/26 04:25:21;;;;;;;69.25;9.88;;;;;;;;;;5062093;28;20433;-89
2022/11/26 04:27:55;;;;;;;104.88;10.07;;;;;;;;;;5065510;28;20417;-88
2022/11/26 04:30:23;;;;;;;55.58;10.15;;;;;;;;;;5071305;28;20411;-89
2022/11/26 04:32:51;;;;;;;70.07;9.73;;;;;;;;;;5071838;28;20422;-88
2022/11/26 04:35:20;;;;;;;60.10;9.40;;;;;;;;;;5069631;28;20409;-90
2022/11/26 04:37:48;;;;;;;87.25;9.80;;;;;;;;;;5073533;28;20901;-87
2022/11/26 04:40:20;;;;;;;57.97;9.25;;;;;;;;;;5064795;28;20920;-89
2022/11/26 04:42:48;;;;;;;73.75;9.60;;;;;;;;;;5070492;28;20780;-88
2022/11/26 04:45:21;;;;;;;34.08;9.23;;;;;;;;;;5064524;28;20433;-89
2022/11/26 04:47:54;;;;;;;36.92;9.10;;;;;;;;;;5067871;28;20431;-88
2022/11/26 04:50:23;;;;;;;57.33;9.20;;;;;;;;;;5069414;28;20438;-90
2022/11/26 04:52:56;;;;;;;42.00;9.45;;;;;;;;;;5073403;28;20426;-90
2022/11/26 04:55:29;;;;;;;71.32;10.15;;;;;;;;;;5095477;28;20419;-88
2022/11/26 04:57:57;;;;;;;61.97;9.20;;;;;;;;;;5064318;28;20418;-87
2022/11/26 05:00:30;;;;;;;56.67;9.20;;;;;;;;;;5084833;28;20411;-89
2022/11/26 05:02:57;;;;;;;57.78;9.20;;;;;;;;;;5088465;28;20420;-88
2022/11/26 05:05:32;;;;;;;97.15;10.38;;;;;;;;;;5065744;28;20431;-89
2022/11/26 05:08:05;;;;;;;91.18;9.68;;;;;;;;;;5085021;28;20417;-89
2022/11/26 05:10:37;;;;;;;49.53;9.48;;;;;;;;;;5102110;28;20410;-88
2022/11/26 05:13:11;;;;;;;82.90;10.00;;;;;;;;;;5063473;28;20457;-89
2022/11/26 05:15:43;;;;;;;52.35;10.30;;;;;;;;;;5063129;28;20417;-90
2022/11/26 05:18:16;;;;;;;91.85;11.27;;;;;;;;;;5080000;28;20419;-87
2022/11/26 05:20:50;;;;;;;50.58;9.95;;;;;;;;;;5067103;28;20425;-89
2022/11/26 05:23:23;;;;;;;122.37;11.67;;;;;;;;;;5087055;28;20440;-90
2022/11/26 05:25:56;;;;;;;105.85;10.60;;;;;;;;;;5071516;28;20451;-89
2022/11/26 05:28:23;;;;;;;87.78;11.32;;;;;;;;;;5084728;28;20422;-89
2022/11/26 05:31:00;;;;;;;95.77;10.67;;;;;;;;;;5084261;28;20427;-88
2022/11/26 05:33:28;;;;;;;93.70;9.95;;;;;;;;;;5066467;28;20425;-89
2022/11/26 05:36:02;;;;;;;47.78;9.63;;;;;;;;;;5096751;28;20413;-89
2022/11/26 05:38:35;;;;;;;115.07;9.65;;;;;;;;;;5062384;28;20406;-87
2022/11/26 05:41:03;;;;;;;86.55;9.30;;;;;;;;;;5060097;28;20419;-89
2022/11/26 05:43:31;;;;;;;81.43;9.70;;;;;;;;;;5056529;28;21329;-88
2022/11/26 05:46:02;;;;;;;78.40;9.30;;;;;;;;;;5072811;28;20414;-88
2022/11/26 05:48:30;;;;;;;109.60;9.20;;;;;;;;;;5067965;28;20803;-89
2022/11/26 05:51:04;;;;;;;95.55;9.38;;;;;;;;;;5071438;28;20444;-90
2022/11/26 05:53:37;;;;;;;71.25;9.20;;;;;;;;;;5080354;28;20415;-89
2022/11/26 05:56:05;;;;;;;102.90;9.95;;;;;;;;;;5064098;28;20863;-90
2022/11/26 05:58:38;;;;;;;56.83;9.27;;;;;;;;;;5097169;28;21139;-89
2022/11/26 06:01:06;;;;;;;106.20;10.23;;;;;;;;;;5061164;28;20423;-88
2022/11/26 06:03:34;;;;;;;161.20;9.63;;;;;;;;;;5080626;28;20425;-89
2022/11/26 06:06:02;;;;;;;91.50;9.18;;;;;;;;;;5062855;28;20425;-90
2022/11/26 06:08:36;;;;;;;82.18;8.38;;;;;;;;;;5062033;28;20422;-89
2022/11/26 06:11:10;;;;;;;104.97;9.13;;;;;;;;;;5063169;28;20419;-88
2022/11/26 06:13:38;;;;;;;96.07;8.95;;;;;;;;;;5092926;28;20426;-89
2022/11/26 06:16:07;;;;;;;65.28;8.30;;;;;;;;;;5066698;28;20919;-88
2022/11/26 06:18:40;;;;;;;91.77;9.33;;;;;;;;;;5078248;28;20514;-90
2022/11/26 06:21:08;;;;;;;87.78;9.05;;;;;;;;;;5066691;28;20441;-88
2022/11/26 06:23:37;;;;;;;97.53;8.95;;;;;;;;;;5061221;28;20424;-88
2022/11/26 06:26:07;;;;;;;64.38;8.85;;;;;;;;;;5070964;28;20421;-89
2022/11/26 06:28:40;;;;;;;61.00;8.52;;;;;;;;;;5079489;28;20778;-89
2022/11/26 06:31:13;;;;;;;71.95;9.02;;;;;;;;;;5061839;28;20423;-90
2022/11/26 06:33:40;;;;;;;55.42;8.88;;;;;;;;;;5074412;28;20448;-88
2022/11/26 06:36:13;;;;;;;59.83;8.10;;;;;;;;;;5065865;28;20743;-89
2022/11/26 06:38:42;;;;;;;75.88;7.93;;;;;;;;;;5086925;28;20420;-89
2022/11/26 06:41:15;;;;;;;73.97;8.52;;;;;;;;;;5074298;28;20423;-89
2022/11/26 06:43:43;;;;;;;84.57;8.70;;;;;;;;;;5074963;28;20424;-89
2022/11/26 06:46:11;;;;;;;69.22;8.25;;;;;;;;;;5074108;28;20421;-90
2022/11/26 06:48:39;;;;;;;72.45;8.50;;;;;;;;;;5067785;28;20417;-87
2022/11/26 06:51:13;;;;;;;69.72;8.50;;;;;;;;;;5062084;28;20431;-90
2022/11/26 06:53:47;;;;;;;49.35;8.38;;;;;;;;;;5082633;28;20406;-89
2022/11/26 06:56:21;;;;;;;52.50;8.10;;;;;;;;;;5086742;28;20415;-89
2022/11/26 06:58:54;;;;;;;84.60;8.02;;;;;;;;;;5064390;28;20776;-89
2022/11/26 07:01:23;;;;;;;75.45;7.68;;;;;;;;;;5095600;27;20919;-88
2022/11/26 07:03:52;;;;;;;70.95;7.95;;;;;;;;;;5079698;28;20431;-89
2022/11/26 07:06:25;;;;;;;60.92;7.07;;;;;;;;;;5073708;28;20431;-88
2022/11/26 07:09:03;;;;;;;50.05;7.35;;;;;;;;;;5086224;28;20426;-89
2022/11/26 07:11:31;;;;;;;97.43;7.75;;;;;;;;;;5071168;28;20949;-89
2022/11/26 07:14:00;;;;;;;43.53;6.88;;;;;;;;;;5080427;28;20631;-89
2022/11/26 07:16:33;;;;;;;85.80;7.47;;;;;;;;;;5064104;28;20422;-89
2022/11/26 07:19:06;;;;;;;86.72;6.95;;;;;;;;;;5077394;28;20752;-89
2022/11/26 07:21:33;;;;;;;76.00;7.65;;;;;;;;;;5069260;28;20421;-88
2022/11/26 07:24:03;;;;;;;82.03;7.00;;;;;;;;;;5069338;28;20418;-88
2022/11/26 07:26:31;;;;;;;109.85;7.53;;;;;;;;;;5082723;28;20430;-89
2022/11/26 07:28:58;;;;;;;80.65;7.00;;;;;;;;;;5059336;28;20428;-86
2022/11/26 07:31:26;;;;;;;72.65;6.90;;;;;;;;;;5089515;28;20430;-88
2022/11/26 07:33:55;;;;;;;85.03;6.82;;;;;;;;;;5068969;28;20424;-88
2022/11/26 07:36:29;;;;;;;104.50;7.80;;;;;;;;;;5084473;28;20409;-88
2022/11/26 07:38:57;;;;;;;107.28;7.95;;;;;;;;;;5099998;27;20783;-88
2022/11/26 07:41:27;;;;;;;102.37;8.10;;;;;;;;;;5076770;28;20436;-89
2022/11/26 07:43:55;;;;;;;75.50;7.57;;;;;;;;;;5077359;28;20430;-88
2022/11/26 07:46:28;;;;;;;38.67;6.80;;;;;;;;;;5089203;28;20412;-89
2022/11/26 07:48:56;;;;;;;50.92;7.00;;;;;;;;;;5068419;28;20419;-89
2022/11/26 07:51:30;;;;;;;56.22;7.20;;;;;;;;;;5079365;28;20442;-89
2022/11/26 07:54:04;;;;;;;30.05;6.70;;;;;;;;;;5090732;28;20776;-88
2022/11/26 07:56:38;;;;;;;44.33;7.37;;;;;;;;;;5087962;28;20416;-88
2022/11/26 07:59:06;;;;;;;49.85;7.30;;;;;;;;;;5104696;27;20416;-88
2022/11/26 08:01:38;;;;;;;31.67;6.88;;;;;;;;;;5097719;27;20421;-89
2022/11/26 08:04:06;;;;;;;52.10;8.00;;;;;;;;;;5078591;28;20414;-89
2022/11/26 08:06:34;;;;;;;42.50;7.53;;;;;;;;;;5077526;28;20428;-88
2022/11/26 08:09:03;;;;;;;50.30;7.35;;;;;;;;;;5107578;27;20430;-88
2022/11/26 08:11:37;;;;;;;32.20;6.88;;;;;;;;;;5075415;28;20417;-88
2022/11/26 08:14:06;;;;;;;39.88;7.03;;;;;;;;;;5088013;28;20421;-88
2022/11/26 08:16:34;;;;;;;43.03;7.60;;;;;;;;;;5075174;28;20419;-90
2022/11/26 08:19:08;;;;;;;62.80;8.57;;;;;;;;;;5073588;28;21103;-89
2022/11/26 08:21:37;;;;;;;34.20;8.85;;;;;;;;;;5075195;28;20438;-89
2022/11/26 08:24:05;;;;;;;53.70;8.75;;;;;;;;;;5090279;28;20880;-86
2022/11/26 08:26:40;;;;;;;57.38;9.15;;;;;;;;;;5091327;28;20797;-89
2022/11/26 08:29:13;;;;;;;40.88;9.07;;;;;;;;;;5068040;28;20908;-86
2022/11/26 08:31:45;;;;;;;47.60;9.30;;;;;;;;;;5089068;28;20433;-88
2022/11/26 08:34:19;;;;;;;31.63;9.07;;;;;;;;;;5074092;28;20421;-89
2022/11/26 08:36:46;;;;;;;35.50;9.50;;;;;;;;;;5068646;28;20415;-89
2022/11/26 08:39:16;;;;;;;39.63;9.48;;;;;;;;;;5083706;28;20419;-90
2022/11/26 08:41:50;;;;;;;27.85;9.13;;;;;;;;;;5089140;27;20445;-88
2022/11/26 08:44:18;;;;;;;27.23;8.77;;;;;;;;;;5078429;28;20425;-87
2022/11/26 08:46:50;;;;;;;34.85;9.30;;;;;;;;;;5087149;28;20451;-86
2022/11/26 08:49:19;;;;;;;29.33;8.75;;;;;;;;;;5055522;28;20444;-85
2022/11/26 08:51:46;;;;;;;35.40;8.45;;;;;;;;;;5073087;28;20417;-85
2022/11/26 08:54:14;;;;;;;29.52;8.13;;;;;;;;;;5051881;28;20428;-88
2022/11/26 08:56:42;;;;;;;48.85;8.77;;;;;;;;;;5070510;28;20425;-88
2022/11/26 08:59:11;;;;;;;72.45;9.60;;;;;;;;;;5068044;28;20406;-84
2022/11/26 09:01:44;;;;;;;46.83;9.17;;;;;;;;;;5046357;28;20510;-87
2022/11/26 09:04:12;;;;;;;30.67;8.97;;;;;;;;;;5047546;28;20437;-88
2022/11/26 09:06:40;;;;;;;45.45;9.40;;;;;;;;;;5044981;28;20430;-85
2022/11/26 09:09:13;;;;;;;39.88;9.68;;;;;;;;;;5058641;28;20449;-87
2022/11/26 09:11:42;;;;;;;34.22;9.18;;;;;;;;;;5037172;28;20464;-84
2022/11/26 09:14:17;;;;;;;40.42;9.90;;;;;;;;;;5078447;28;20426;-84
2022/11/26 09:16:49;;;;;;;71.27;10.17;;;;;;;;;;5047274;28;20429;-86
2022/11/26 09:19:17;;;;;;;47.33;10.40;;;;;;;;;;5059410;28;21174;-89
2022/11/26 09:21:50;;;;;;;26.73;10.02;;;;;;;;;;5071866;28;20422;-88
2022/11/26 09:24:23;;;;;;;50.58;10.25;;;;;;;;;;5063929;28;20422;-84
2022/11/26 09:26:56;;;;;;;39.40;10.35;;;;;;;;;;5042365;28;20430;-84
2022/11/26 09:29:30;;;;;;;43.70;10.70;;;;;;;;;;5072187;28;20926;-89
2022/11/26 09:31:58;;;;;;;29.33;10.35;;;;;;;;;;5047688;28;20434;-86
2022/11/26 09:34:26;;;;;;;38.25;10.98;;;;;;;;;;5057641;28;20423;-91
2022/11/26 09:36:59;;;;;;;35.72;10.68;;;;;;;;;;5062036;28;22110;-86
2022/11/26 09:39:31;;;;;;;36.63;11.00;;;;;;;;;;5045569;28;20450;-90
2022/11/26 09:42:05;;;;;;;34.92;10.90;;;;;;;;;;5053491;28;20480;-87
2022/11/26 09:44:46;;;;;;;42.63;10.93;;;;;;;;;;5050250;28;21093;-90
2022/11/26 09:47:21;;;;;;;32.13;11.27;;;;;;;;;;5045118;28;20412;-90
2022/11/26 09:49:57;;;;;;;33.00;11.45;;;;;;;;;;5056835;28;20438;-85
2022/11/26 09:52:26;;;;;;;48.45;11.52;;;;;;;;;;5055889;28;21129;-89
2022/11/26 09:54:56;;;;;;;32.45;10.73;;;;;;;;;;5045979;28;20441;-88
2022/11/26 09:57:33;;;;;;;36.75;11.13;;;;;;;;;;5070207;28;20406;-88
2022/11/26 10:00:16;;;;;;;41.80;11.20;;;;;;;;;;5061963;28;20429;-84
2022/11/26 10:02:52;;;;;;;33.50;11.75;;;;;;;;;;5050948;28;20949;-87
2022/11/26 10:05:22;;;;;;;30.83;11.13;;;;;;;;;;5060773;28;20429;-88
2022/11/26 10:07:56;;;;;;;35.03;11.20;;;;;;;;;;5048541;28;20433;-86
2022/11/26 10:10:28;;;;;;;26.17;10.90;;;;;;;;;;5076824;28;20432;-88
2022/11/26 10:13:08;;;;;;;36.72;11.68;;;;;;;;;;5058214;28;20910;-88
2022/11/26 10:15:44;;;;;;;37.67;11.30;;;;;;;;;;5037496;28;20426;-87
2022/11/26 10:18:18;;;;;;;44.58;11.27;;;;;;;;;;5061203;28;20450;-89
2022/11/26 10:20:53;;;;;;;48.40;11.50;;;;;;;;;;5038830;28;20437;-86
2022/11/26 10:23:31;;;;;;;49.10;10.93;;;;;;;;;;5052120;28;20429;-90
2022/11/26 10:26:06;;;;;;;43.80;11.02;;;;;;;;;;5053610;28;20426;-86
2022/11/26 10:28:43;;;;;;;33.72;10.63;;;;;;;;;;5049247;28;20422;-88
2022/11/26 10:31:15;;;;;;;48.30;10.52;;;;;;;;;;5058207;28;20891;-90
2022/11/26 10:33:54;;;;;;;31.20;10.57;;;;;;;;;;5062177;28;20438;-88
2022/11/26 10:36:23;;;;;;;28.80;10.57;;;;;;;;;;5076439;28;21162;-90
2022/11/26 10:38:52;;;;;;;28.27;10.40;;;;;;;;;;5062204;28;20423;-89
2022/11/26 10:41:20;;;;;;;27.10;10.35;;;;;;;;;;5083847;28;20775;-89
2022/11/26 10:43:53;;;;;;;34.42;10.88;;;;;;;;;;5061057;28;21241;-89
2022/11/26 10:46:32;;;;;;;35.85;10.35;;;;;;;;;;5066944;28;20427;-89
2022/11/26 10:49:20;;;;;;;30.98;10.75;;;;;;;;;;5059099;28;20926;-87
2022/11/26 10:51:54;;;;;;;30.50;10.95;;;;;;;;;;5080931;28;20448;-89
2022/11/26 10:54:24;;;;;;;41.15;11.45;;;;;;;;;;5080964;28;20440;-90
2022/11/26 10:56:52;;;;;;;28.80;11.03;;;;;;;;;;5065936;28;20450;-89
2022/11/26 10:59:22;;;;;;;39.50;11.10;;;;;;;;;;5058661;28;20423;-89
2022/11/26 11:02:00;;;;;;;33.33;10.85;;;;;;;;;;5066227;28;20426;-90
2022/11/26 11:04:31;;;;;;;26.20;10.82;;;;;;;;;;5075621;28;20425;-89
2022/11/26 11:07:04;;;;;;;33.63;11.55;;;;;;;;;;5076707;28;20461;-87
2022/11/26 11:09:33;;;;;;;30.20;11.32;;;;;;;;;;5079052;28;20426;-87
2022/11/26 11:12:14;;;;;;;49.42;11.55;;;;;;;;;;5061482;28;20427;-89
2022/11/26 11:14:42;;;;;;;36.38;11.52;;;;;;;;;;5080238;28;20418;-89
2022/11/26 11:17:19;;;;;;;26.83;11.43;;;;;;;;;;5060630;28;20434;-89
2022/11/26 11:19:53;;;;;;;32.42;12.00;;;;;;;;;;5081120;28;20423;-90
2022/11/26 11:22:22;;;;;;;33.72;12.13;;;;;;;;;;5064225;28;20882;-88
2022/11/26 11:24:56;;;;;;;30.17;11.85;;;;;;;;;;5082164;28;20429;-90
2022/11/26 11:27:37;;;;;;;53.03;12.55;;;;;;;;;;5081008;28;20426;-88
2022/11/26 11:30:23;;;;;;;35.17;12.77;;;;;;;;;;5076877;28;20455;-88
2022/11/26 11:32:56;;;;;;;34.00;12.35;;;;;;;;;;5093171;28;20429;-88
2022/11/26 11:35:30;;;;;;;38.87;12.97;;;;;;;;;;5080959;28;21111;-87
2022/11/26 11:38:03;;;;;;;35.40;13.35;;;;;;;;;;5093250;28;20424;-88
2022/11/26 11:40:41;;;;;;;45.08;13.65;;;;;;;;;;5077279;28;20756;-88
2022/11/26 11:43:14;;;;;;;35.53;13.02;;;;;;;;;;5096193;28;20431;-88
2022/11/26 11:45:43;;;;;;;34.47;13.37;;;;;;;;;;5064003;28;20435;-88
2022/11/26 11:48:16;;;;;;;35.75;12.88;;;;;;;;;;5060240;28;20423;-88
2022/11/26 11:50:54;;;;;;;35.13;13.20;;;;;;;;;;5079649;28;20436;-88
2022/11/26 11:53:34;;;;;;;35.92;12.77;;;;;;;;;;5081377;28;20414;-87
2022/11/26 11:56:10;;;;;;;35.83;12.70;;;;;;;;;;5081273;28;20425;-90
2022/11/26 11:58:45;;;;;;;35.00;12.60;;;;;;;;;;5089968;28;20509;-90
2022/11/26 12:01:20;;;;;;;37.78;13.00;;;;;;;;;;5077112;28;20404;-89
2022/11/26 12:04:03;;;;;;;38.57;13.33;;;;;;;;;;5063207;28;20418;-88
2022/11/26 12:06:39;;;;;;;35.75;13.38;;;;;;;;;;5060837;28;20427;-89
2022/11/26 12:09:16;;;;;;;43.00;13.98;;;;;;;;;;5066645;28;20429;-87
2022/11/26 12:11:47;;;;;;;39.15;13.60;;;;;;;;;;5063148;28;20940;-88
2022/11/26 12:14:20;;;;;;;34.80;13.30;;;;;;;;;;5062436;28;20429;-88
2022/11/26 12:16:50;;;;;;;44.22;13.68;;;;;;;;;;5081785;28;20410;-87
2022/11/26 12:19:22;;;;;;;36.28;12.50;;;;;;;;;;5085789;28;20403;-87
2022/11/26 12:21:58;;;;;;;41.47;14.27;;;;;;;;;;5072010;28;20441;-87
2022/11/26 12:24:36;;;;;;;42.67;13.55;;;;;;;;;;5064103;28;20454;-89
2022/11/26 12:27:06;;;;;;;36.97;13.63;;;;;;;;;;5085267;28;20423;-88
2022/11/26 12:29:41;;;;;;;38.55;13.57;;;;;;;;;;5094971;28;20431;-88
2022/11/26 12:32:12;;;;;;;39.80;13.90;;;;;;;;;;5073714;28;20864;-88
2022/11/26 12:34:48;;;;;;;38.78;13.32;;;;;;;;;;5098779;28;20909;-89
2022/11/26 12:37:19;;;;;;;41.10;13.20;;;;;;;;;;5088119;28;20505;-90
2022/11/26 12:39:56;;;;;;;32.30;12.13;;;;;;;;;;5060728;28;20420;-89
2022/11/26 12:42:27;;;;;;;35.25;12.30;;;;;;;;;;5076097;28;20879;-88
2022/11/26 12:44:58;;;;;;;35.45;12.95;;;;;;;;;;5074633;28;20427;-88
2022/11/26 12:47:34;;;;;;;34.45;12.88;;;;;;;;;;5074758;28;20924;-89
2022/11/26 12:50:05;;;;;;;41.85;13.35;;;;;;;;;;5065635;28;20425;-87
2022/11/26 12:52:38;;;;;;;37.03;12.45;;;;;;;;;;5068773;28;20416;-90
2022/11/26 12:55:12;;;;;;;30.83;12.02;;;;;;;;;;5083954;28;20430;-89
2022/11/26 12:57:48;;;;;;;28.75;11.50;;;;;;;;;;5071229;28;20441;-89
2022/11/26 13:00:23;;;;;;;29.80;11.45;;;;;;;;;;5070031;28;20758;-89
2022/11/26 13:02:51;;;;;;;34.13;11.55;;;;;;;;;;5081485;28;20415;-88
2022/11/26 13:05:27;;;;;;;28.52;10.93;;;;;;;;;;5067448;28;20428;-90
2022/11/26 13:08:07;;;;;;;31.52;11.85;;;;;;;;;;5071521;28;20418;-88
2022/11/26 13:10:48;;;;;;;28.25;11.20;;;;;;;;;;5061438;28;20439;-88
2022/11/26 13:13:19;;;;;;;35.00;11.43;;;;;;;;;;5088157;28;20418;-89
2022/11/26 13:15:59;;;;;;;30.70;11.35;;;;;;;;;;5066713;28;20756;-89
2022/11/26 13:18:30;;;;;;;33.42;10.52;;;;;;;;;;5060605;28;20761;-89
2022/11/26 13:21:05;;;;;;;29.58;11.05;;;;;;;;;;5058720;28;20446;-88
2022/11/26 13:23:45;;;;;;;36.97;10.40;;;;;;;;;;5063278;28;20502;-89
2022/11/26 13:26:28;;;;;;;31.90;11.18;;;;;;;;;;5077316;28;20874;-89
2022/11/26 13:29:17;;;;;;;33.08;11.70;;;;;;;;;;5078648;28;20423;-89
2022/11/26 13:31:56;;;;;;;32.93;12.07;;;;;;;;;;5084504;28;20418;-88
2022/11/26 13:34:36;;;;;;;29.47;11.53;;;;;;;;;;5067289;28;20775;-89
2022/11/26 13:37:23;;;;;;;32.17;11.27;;;;;;;;;;5065088;28;20418;-88
2022/11/26 13:40:17;;;;;;;30.63;11.37;;;;;;;;;;5078628;28;20422;-88
2022/11/26 13:43:09;;;;;;;36.60;12.02;;;;;;;;;;5069784;28;20422;-88
2022/11/26 13:45:55;;;;;;;33.42;11.73;;;;;;;;;;5080922;28;20422;-89
2022/11/26 13:48:31;;;;;;;35.85;12.05;;;;;;;;;;5082644;28;20425;-87
2022/11/26 13:51:06;;;;;;;28.52;11.05;;;;;;;;;;5083281;28;20901;-88
2022/11/26 13:53:36;;;;;;;31.00;11.02;;;;;;;;;;5079930;28;20888;-89
2022/11/26 13:56:11;;;;;;;35.22;11.75;;;;;;;;;;5062809;28;20427;-89
2022/11/26 13:58:45;;;;;;;30.90;11.65;;;;;;;;;;5083057;28;20422;-87
2022/11/26 14:01:35;;;;;;;37.42;12.43;;;;;;;;;;5060182;28;20422;-89
2022/11/26 14:04:09;;;;;;;37.13;12.23;;;;;;;;;;5082567;28;20888;-86
2022/11/26 14:06:37;;;;;;;30.35;11.93;;;;;;;;;;5078274;28;20414;-89
2022/11/26 14:09:06;;;;;;;31.92;12.35;;;;;;;;;;5064468;28;20419;-89
2022/11/26 14:11:56;;;;;;;33.05;11.93;;;;;;;;;;5087870;28;20422;-86
2022/11/26 14:14:32;;;;;;;30.83;11.88;;;;;;;;;;5065562;28;20817;-88
2022/11/26 14:17:21;;;;;;;33.92;11.98;;;;;;;;;;5061171;28;20434;-89
2022/11/26 14:20:04;;;;;;;35.90;11.68;;;;;;;;;;5052772;28;20417;-87
2022/11/26 14:22:33;;;;;;;34.20;11.93;;;;;;;;;;5083942;28;20421;-89
2022/11/26 14:25:07;;;;;;;47.80;12.48;;;;;;;;;;5096501;27;20434;-87
2022/11/26 14:27:46;;;;;;;39.72;11.77;;;;;;;;;;5069476;28;21257;-89
2022/11/26 14:30:17;;;;;;;44.73;13.13;;;;;;;;;;5074347;28;20895;-90
2022/11/26 14:32:47;;;;;;;39.80;12.15;;;;;;;;;;5080886;28;20427;-88
2022/11/26 14:35:18;;;;;;;42.30;12.55;;;;;;;;;;5060111;28;20414;-89
2022/11/26 14:37:52;;;;;;;40.47;11.82;;;;;;;;;;5067061;28;20442;-88
2022/11/26 14:40:25;;;;;;;42.67;11.98;;;;;;;;;;5080428;28;20891;-89
2022/11/26 14:43:07;;;;;;;41.65;12.15;;;;;;;;;;5090116;28;20438;-90
2022/11/26 14:45:41;;;;;;;44.88;12.25;;;;;;;;;;5085958;28;20427;-87
2022/11/26 14:48:21;;;;;;;41.47;13.10;;;;;;;;;;5083675;28;20795;-89
2022/11/26 14:50:50;;;;;;;42.42;11.93;;;;;;;;;;5076891;28;20446;-88
2022/11/26 14:53:19;;;;;;;44.83;13.02;;;;;;;;;;5062240;28;20970;-88
2022/11/26 14:55:48;;;;;;;51.38;13.52;;;;;;;;;;5076579;28;20410;-87